• Join FlightAware (Why Join?)
  • Login
  • US Flag 
04:43AM EDT


 

Airport Tracker/Info


-or-


 

Live Flight TrackerFlight Track Log ✈ PDT4314 ✈ 25-Oct-2013 ✈ KBGM - KPHL

Flight Track Log - Related Links

Times and Time Zones

All times are in EDT time to prevent confusion due to time zone crossing. See the PDT4314 flight status page for this flight to view local times or setup timezone preferences in your user account.

Time Position Orientation Groundspeed Altitude Reporting Facility
EDT Latitude Longitude Course Direction KTS MPH feet Rate Location/Type
06:09PM 41.9924 -75.9090 180° South  Level Estimated
06:10PM 41.9370 -75.9146 184° South  Level FlightAware Approximate
06:11PM 41.8830 -75.8964 154° Southeast  Level Estimated
06:12PM 41.8291 -75.8783 160° South  Level Estimated
06:13PM 41.7736 -75.8750 177° South  Level FlightAware Approximate
06:14PM 41.7197 -75.8565 159° South  Level Estimated
06:15PM 41.6652 -75.8424 169° South  Level FlightAware Approximate
06:16PM 41.6114 -75.8239 153° Southeast  Level Estimated
06:17PM 41.5575 -75.8053 161° South  Level Estimated
06:18PM 41.5045 -75.7830 162° South  Level FlightAware Approximate
06:19PM 41.4515 -75.7607 163° South  Level FlightAware Approximate
06:20PM 41.3985 -75.7385 163° South  Level FlightAware Approximate
06:21PM 41.3446 -75.7205 162° South  Level Estimated
06:22PM 41.2919 -75.6969 161° South  Level FlightAware Approximate
06:23PM 41.2392 -75.6733 161° South  Level FlightAware Approximate
06:24PM 41.1865 -75.6497 161° South  Level FlightAware Approximate
06:25PM 41.1338 -75.6262 161° South  Level FlightAware Approximate
06:26PM 41.0797 -75.6094 163° South  Level Estimated
06:27PM 41.0270 -75.5861 162° South  Level FlightAware Approximate
06:28PM 40.9743 -75.5629 162° South  Level FlightAware Approximate
06:29PM 40.9215 -75.5397 162° South  Level FlightAware Approximate
06:29PM 40.7000 -75.5333 180° South 250 288 8,100  Level Philadelphia TRACON
06:29PM 40.6667 -75.5333 180° South 251 289 8,100 -360 Level Philadelphia TRACON
06:30PM 40.8688 -75.5165 162° South  Level FlightAware Approximate
06:30PM 40.5833 -75.5333 180° South 260 299 7,600  Level Philadelphia TRACON
06:31PM 40.8144 -75.5013 190° South  Level Estimated
06:31PM 40.5167 -75.5333 180° South 271 312 7,100  Level Philadelphia TRACON
06:32PM 40.7588 -75.5010 180° South  Level FlightAware Approximate
06:32PM 40.4333 -75.5500 189° South 275 316 6,200  Level Philadelphia TRACON
06:33PM 40.7032 -75.5008 180° South  Level FlightAware Approximate
06:33PM 40.3667 -75.5333 169° South 283 326 5,200  Level Philadelphia TRACON
06:34PM 40.6476 -75.5006 180° South  Level FlightAware Approximate
06:34PM 40.3000 -75.4833 150° Southeast 266 306 5,000  Level Philadelphia TRACON
06:35PM 40.2333 -75.4333 150° Southeast 255 293 5,000 -240 Level Philadelphia TRACON
06:36PM 40.1667 -75.3833 150° Southeast 267 307 4,600 -540 Descending Philadelphia TRACON
06:37PM 40.1167 -75.3167 134° Southeast 265 305 4,000 -300 Descending Philadelphia TRACON
06:39PM 40.0500 -75.2500 143° Southeast 247 284 4,000  Level Philadelphia TRACON
06:40PM 40.0000 -75.2000 143° Southeast 244 281 4,000  Level Philadelphia TRACON
06:41PM 39.9333 -75.1833 169° South 238 274 4,000  Level Philadelphia TRACON
06:42PM 39.8833 -75.1500 153° Southeast 214 246 4,000 -540 Level Philadelphia TRACON
06:43PM 39.8167 -75.1333 169° South 222 255 3,000 -960 Descending Philadelphia TRACON
06:44PM 39.7833 -75.1833 229° Southwest 163 188 2,100 -960 Descending Philadelphia TRACON
06:45PM 39.8167 -75.2000 339° North 140 161 1,100 -840 Descending Philadelphia TRACON
06:46PM 39.8500 -75.2167 339° North 92 106 500 -600 Descending Philadelphia TRACON